sensor_id;sensor_type;location;lat;lon;timestamp;pressure;altitude;pressure_sealevel;temperature;humidity
31096;BME280;17749;51.962;8.560;2023-10-08T05:03:04;100791.56;;;11.63;100.00
31096;BME280;17749;51.962;8.560;2023-10-08T05:05:41;100799.50;;;11.66;100.00
31096;BME280;17749;51.962;8.560;2023-10-08T05:08:37;100808.63;;;11.59;100.00
31096;BME280;17749;51.962;8.560;2023-10-08T05:11:24;100826.56;;;11.54;100.00
31096;BME280;17749;51.962;8.560;2023-10-08T05:16:52;100857.72;;;11.53;100.00
31096;BME280;17749;51.962;8.560;2023-10-08T05:19:27;100869.16;;;11.57;100.00
31096;BME280;17749;51.962;8.560;2023-10-08T05:22:09;100873.50;;;11.59;100.00
31096;BME280;17749;51.962;8.560;2023-10-08T05:24:56;100883.22;;;11.62;100.00
31096;BME280;17749;51.962;8.560;2023-10-08T05:27:52;100883.97;;;11.66;100.00
31096;BME280;17749;51.962;8.560;2023-10-08T05:30:20;100881.03;;;11.75;100.00
31096;BME280;17749;51.962;8.560;2023-10-08T05:33:07;100888.56;;;11.62;100.00
31096;BME280;17749;51.962;8.560;2023-10-08T05:35:51;100889.13;;;11.72;100.00
31096;BME280;17749;51.962;8.560;2023-10-08T05:38:29;100891.00;;;11.68;100.00
31096;BME280;17749;51.962;8.560;2023-10-08T05:40:57;100896.44;;;11.65;100.00
31096;BME280;17749;51.962;8.560;2023-10-08T05:46:13;100920.47;;;11.65;100.00
31096;BME280;17749;51.962;8.560;2023-10-08T05:49:03;100927.34;;;11.72;100.00
31096;BME280;17749;51.962;8.560;2023-10-08T05:51:30;100923.69;;;11.76;100.00
31096;BME280;17749;51.962;8.560;2023-10-08T05:54:18;100916.59;;;11.75;100.00
31096;BME280;17749;51.962;8.560;2023-10-08T05:57:03;100907.94;;;11.67;100.00
31096;BME280;17749;51.962;8.560;2023-10-08T05:59:40;100911.44;;;11.69;100.00
31096;BME280;17749;51.962;8.560;2023-10-08T06:02:40;100920.56;;;11.62;100.00
31096;BME280;17749;51.962;8.560;2023-10-08T06:05:10;100919.00;;;11.55;100.00
31096;BME280;17749;51.962;8.560;2023-10-08T06:07:43;100918.13;;;11.54;100.00
31096;BME280;17749;51.962;8.560;2023-10-08T06:10:29;100915.22;;;11.62;100.00
31096;BME280;17749;51.962;8.560;2023-10-08T06:12:58;100911.00;;;11.55;100.00
31096;BME280;17749;51.962;8.560;2023-10-08T06:18:11;100934.03;;;11.57;100.00
31096;BME280;17749;51.962;8.560;2023-10-08T06:20:40;100942.97;;;11.56;100.00
31096;BME280;17749;51.962;8.560;2023-10-08T06:23:10;100958.00;;;11.59;100.00
31096;BME280;17749;51.962;8.560;2023-10-08T06:25:39;100958.63;;;11.69;100.00
31096;BME280;17749;51.962;8.560;2023-10-08T06:28:13;100963.88;;;11.70;100.00
31096;BME280;17749;51.962;8.560;2023-10-08T06:30:40;100968.22;;;11.74;100.00
31096;BME280;17749;51.962;8.560;2023-10-08T06:33:12;100963.97;;;11.67;100.00
31096;BME280;17749;51.962;8.560;2023-10-08T06:35:40;100963.88;;;11.70;100.00
31096;BME280;17749;51.962;8.560;2023-10-08T06:38:11;100962.97;;;11.71;100.00
31096;BME280;17749;51.962;8.560;2023-10-08T06:40:38;100974.53;;;11.72;100.00
31096;BME280;17749;51.962;8.560;2023-10-08T06:43:04;100985.13;;;11.73;100.00
31096;BME280;17749;51.962;8.560;2023-10-08T06:46:04;100993.94;;;11.77;100.00
31096;BME280;17749;51.962;8.560;2023-10-08T06:48:34;100996.75;;;11.72;100.00
31096;BME280;17749;51.962;8.560;2023-10-08T06:51:01;101006.41;;;11.76;100.00
31096;BME280;17749;51.962;8.560;2023-10-08T06:53:40;101001.97;;;11.75;100.00
31096;BME280;17749;51.962;8.560;2023-10-08T06:56:07;101007.03;;;11.84;100.00
31096;BME280;17749;51.962;8.560;2023-10-08T06:58:38;101010.63;;;11.83;100.00
31096;BME280;17749;51.962;8.560;2023-10-08T07:01:05;101020.53;;;11.80;100.00
31096;BME280;17749;51.962;8.560;2023-10-08T07:03:35;101032.13;;;11.79;100.00
31096;BME280;17749;51.962;8.560;2023-10-08T07:06:02;101035.94;;;11.70;100.00
31096;BME280;17749;51.962;8.560;2023-10-08T07:08:36;101049.91;;;11.78;100.00
31096;BME280;17749;51.962;8.560;2023-10-08T07:11:03;101047.13;;;11.81;100.00
31096;BME280;17749;51.962;8.560;2023-10-08T07:13:34;101050.63;;;11.85;100.00
31096;BME280;17749;51.962;8.560;2023-10-08T07:16:03;101035.31;;;11.92;100.00
31096;BME280;17749;51.962;8.560;2023-10-08T07:18:31;101046.88;;;11.92;100.00
31096;BME280;17749;51.962;8.560;2023-10-08T07:21:01;101053.09;;;11.93;100.00
31096;BME280;17749;51.962;8.560;2023-10-08T07:23:38;101047.00;;;11.88;100.00
31096;BME280;17749;51.962;8.560;2023-10-08T07:26:26;101025.72;;;11.84;100.00
31096;BME280;17749;51.962;8.560;2023-10-08T07:29:04;101026.56;;;11.87;100.00
31096;BME280;17749;51.962;8.560;2023-10-08T07:31:39;101027.25;;;11.93;100.00
31096;BME280;17749;51.962;8.560;2023-10-08T07:34:17;101021.78;;;11.98;100.00
31096;BME280;17749;51.962;8.560;2023-10-08T07:36:50;101028.66;;;12.05;100.00
31096;BME280;17749;51.962;8.560;2023-10-08T07:39:18;101035.03;;;12.01;100.00
31096;BME280;17749;51.962;8.560;2023-10-08T07:41:58;101027.50;;;12.14;100.00
31096;BME280;17749;51.962;8.560;2023-10-08T07:44:26;101028.91;;;12.25;100.00
31096;BME280;17749;51.962;8.560;2023-10-08T07:46:59;101035.59;;;12.39;100.00
31096;BME280;17749;51.962;8.560;2023-10-08T07:49:26;101042.59;;;12.43;100.00
31096;BME280;17749;51.962;8.560;2023-10-08T07:51:59;101029.81;;;12.53;100.00
31096;BME280;17749;51.962;8.560;2023-10-08T07:54:26;101034.06;;;12.58;100.00
31096;BME280;17749;51.962;8.560;2023-10-08T07:57:00;101038.28;;;12.65;100.00
31096;BME280;17749;51.962;8.560;2023-10-08T07:59:37;101046.25;;;12.67;100.00
31096;BME280;17749;51.962;8.560;2023-10-08T08:02:05;101053.50;;;12.63;100.00
31096;BME280;17749;51.962;8.560;2023-10-08T08:04:37;101058.59;;;12.71;100.00
31096;BME280;17749;51.962;8.560;2023-10-08T08:07:07;101068.31;;;12.74;100.00
31096;BME280;17749;51.962;8.560;2023-10-08T08:09:33;101075.59;;;12.68;100.00
31096;BME280;17749;51.962;8.560;2023-10-08T08:12:05;101078.28;;;12.68;100.00
31096;BME280;17749;51.962;8.560;2023-10-08T08:14:38;101095.09;;;12.70;100.00
31096;BME280;17749;51.962;8.560;2023-10-08T08:17:08;101087.91;;;12.72;100.00
31096;BME280;17749;51.962;8.560;2023-10-08T08:19:41;101087.06;;;12.72;100.00
31096;BME280;17749;51.962;8.560;2023-10-08T08:22:08;101078.06;;;12.75;100.00
31096;BME280;17749;51.962;8.560;2023-10-08T08:24:36;101072.84;;;12.70;100.00
31096;BME280;17749;51.962;8.560;2023-10-08T08:27:03;101074.63;;;12.71;100.00
31096;BME280;17749;51.962;8.560;2023-10-08T08:29:38;101055.44;;;12.85;100.00
31096;BME280;17749;51.962;8.560;2023-10-08T08:32:11;101058.13;;;13.10;100.00
31096;BME280;17749;51.962;8.560;2023-10-08T08:34:48;101054.84;;;13.28;100.00
31096;BME280;17749;51.962;8.560;2023-10-08T08:37:17;101064.25;;;13.38;100.00
31096;BME280;17749;51.962;8.560;2023-10-08T08:39:44;101067.72;;;13.42;100.00
31096;BME280;17749;51.962;8.560;2023-10-08T08:42:12;101086.44;;;13.42;100.00
31096;BME280;17749;51.962;8.560;2023-10-08T08:44:42;101096.19;;;13.43;100.00
31096;BME280;17749;51.962;8.560;2023-10-08T08:47:13;101103.94;;;13.26;100.00
31096;BME280;17749;51.962;8.560;2023-10-08T08:49:45;101124.38;;;13.28;100.00
31096;BME280;17749;51.962;8.560;2023-10-08T08:52:12;101127.09;;;13.27;100.00
31096;BME280;17749;51.962;8.560;2023-10-08T08:54:40;101131.84;;;13.17;100.00
31096;BME280;17749;51.962;8.560;2023-10-08T08:57:10;101139.97;;;13.15;100.00
31096;BME280;17749;51.962;8.560;2023-10-08T08:59:44;101149.25;;;13.30;100.00
31096;BME280;17749;51.962;8.560;2023-10-08T09:02:13;101153.63;;;13.33;100.00
31096;BME280;17749;51.962;8.560;2023-10-08T09:04:41;101135.31;;;13.47;100.00
31096;BME280;17749;51.962;8.560;2023-10-08T09:07:08;101124.06;;;13.63;100.00
31096;BME280;17749;51.962;8.560;2023-10-08T09:09:35;101109.59;;;13.67;100.00
31096;BME280;17749;51.962;8.560;2023-10-08T09:12:06;101114.97;;;13.67;100.00
31096;BME280;17749;51.962;8.560;2023-10-08T09:14:37;101144.53;;;13.64;100.00
31096;BME280;17749;51.962;8.560;2023-10-08T09:17:05;101146.34;;;13.63;100.00
31096;BME280;17749;51.962;8.560;2023-10-08T09:19:38;101156.28;;;13.83;100.00
31096;BME280;17749;51.962;8.560;2023-10-08T09:22:09;101144.31;;;13.93;100.00
31096;BME280;17749;51.962;8.560;2023-10-08T09:24:38;101126.94;;;14.05;100.00
31096;BME280;17749;51.962;8.560;2023-10-08T09:27:05;101119.50;;;14.12;100.00
31096;BME280;17749;51.962;8.560;2023-10-08T09:29:33;101109.75;;;14.11;100.00
31096;BME280;17749;51.962;8.560;2023-10-08T09:32:10;101123.56;;;14.22;100.00
31096;BME280;17749;51.962;8.560;2023-10-08T09:34:37;101071.06;;;14.18;100.00
31096;BME280;17749;51.962;8.560;2023-10-08T09:37:04;101068.13;;;14.24;100.00
31096;BME280;17749;51.962;8.560;2023-10-08T09:39:31;101075.56;;;14.39;100.00
31096;BME280;17749;51.962;8.560;2023-10-08T09:42:02;101099.94;;;14.33;100.00
31096;BME280;17749;51.962;8.560;2023-10-08T09:44:33;101107.97;;;14.33;100.00
31096;BME280;17749;51.962;8.560;2023-10-08T09:47:04;101094.06;;;14.23;100.00
31096;BME280;17749;51.962;8.560;2023-10-08T09:49:41;101105.91;;;14.18;100.00
31096;BME280;17749;51.962;8.560;2023-10-08T09:52:09;101122.69;;;13.99;100.00
31096;BME280;17749;51.962;8.560;2023-10-08T09:54:42;101130.00;;;13.94;100.00
31096;BME280;17749;51.962;8.560;2023-10-08T09:57:10;101146.41;;;14.09;100.00
31096;BME280;17749;51.962;8.560;2023-10-08T09:59:37;101154.03;;;13.96;100.00
31096;BME280;17749;51.962;8.560;2023-10-08T10:02:08;101151.84;;;14.07;100.00
31096;BME280;17749;51.962;8.560;2023-10-08T10:04:41;101166.03;;;14.09;100.00
31096;BME280;17749;51.962;8.560;2023-10-08T10:07:10;101175.88;;;14.09;100.00
31096;BME280;17749;51.962;8.560;2023-10-08T10:09:42;101186.84;;;14.02;100.00
31096;BME280;17749;51.962;8.560;2023-10-08T10:12:09;101181.47;;;14.02;100.00
31096;BME280;17749;51.962;8.560;2023-10-08T10:14:45;101175.34;;;13.99;100.00
31096;BME280;17749;51.962;8.560;2023-10-08T10:17:13;101171.69;;;14.01;100.00
31096;BME280;17749;51.962;8.560;2023-10-08T10:20:01;101180.78;;;14.21;100.00
31096;BME280;17749;51.962;8.560;2023-10-08T10:24:59;101191.63;;;14.65;100.00
31096;BME280;17749;51.962;8.560;2023-10-08T10:27:30;101187.63;;;14.75;100.00
31096;BME280;17749;51.962;8.560;2023-10-08T10:30:03;101176.97;;;14.74;100.00
31096;BME280;17749;51.962;8.560;2023-10-08T10:32:35;101166.53;;;14.66;100.00
31096;BME280;17749;51.962;8.560;2023-10-08T10:35:03;101157.38;;;14.72;100.00
31096;BME280;17749;51.962;8.560;2023-10-08T10:37:32;101163.50;;;14.75;100.00
31096;BME280;17749;51.962;8.560;2023-10-08T10:40:09;101143.28;;;14.88;100.00
31096;BME280;17749;51.962;8.560;2023-10-08T10:42:39;101142.56;;;15.05;100.00
31096;BME280;17749;51.962;8.560;2023-10-08T10:45:13;101135.06;;;15.13;100.00
31096;BME280;17749;51.962;8.560;2023-10-08T10:48:00;101125.06;;;15.38;100.00
31096;BME280;17749;51.962;8.560;2023-10-08T10:50:46;101131.13;;;15.43;100.00
31096;BME280;17749;51.962;8.560;2023-10-08T10:53:32;101136.03;;;15.33;100.00
31096;BME280;17749;51.962;8.560;2023-10-08T10:55:59;101130.19;;;15.23;100.00
31096;BME280;17749;51.962;8.560;2023-10-08T10:58:31;101146.81;;;15.31;100.00
31096;BME280;17749;51.962;8.560;2023-10-08T11:01:05;101148.03;;;15.24;100.00
31096;BME280;17749;51.962;8.560;2023-10-08T11:03:50;101141.25;;;15.16;100.00
31096;BME280;17749;51.962;8.560;2023-10-08T11:06:19;101131.47;;;15.15;100.00
31096;BME280;17749;51.962;8.560;2023-10-08T11:08:50;101137.03;;;15.30;100.00
31096;BME280;17749;51.962;8.560;2023-10-08T11:11:25;101127.03;;;15.34;100.00
31096;BME280;17749;51.962;8.560;2023-10-08T11:13:57;101138.72;;;15.33;100.00
31096;BME280;17749;51.962;8.560;2023-10-08T11:16:27;101133.47;;;15.30;100.00
31096;BME280;17749;51.962;8.560;2023-10-08T11:18:58;101130.72;;;15.11;100.00
31096;BME280;17749;51.962;8.560;2023-10-08T11:21:28;101118.72;;;15.20;100.00
31096;BME280;17749;51.962;8.560;2023-10-08T11:24:00;101111.25;;;15.06;100.00
31096;BME280;17749;51.962;8.560;2023-10-08T11:26:36;101127.63;;;15.00;100.00
31096;BME280;17749;51.962;8.560;2023-10-08T11:29:06;101116.47;;;15.09;100.00
31096;BME280;17749;51.962;8.560;2023-10-08T11:31:41;101134.19;;;15.13;100.00
31096;BME280;17749;51.962;8.560;2023-10-08T11:34:10;101132.06;;;15.21;100.00
31096;BME280;17749;51.962;8.560;2023-10-08T11:36:40;101142.47;;;15.29;100.00
31096;BME280;17749;51.962;8.560;2023-10-08T11:39:20;101154.28;;;15.25;100.00
31096;BME280;17749;51.962;8.560;2023-10-08T11:41:59;101146.09;;;15.28;100.00
31096;BME280;17749;51.962;8.560;2023-10-08T11:44:31;101149.34;;;15.14;100.00
31096;BME280;17749;51.962;8.560;2023-10-08T11:47:03;101144.53;;;15.02;100.00
31096;BME280;17749;51.962;8.560;2023-10-08T11:49:47;101144.47;;;14.81;100.00
31096;BME280;17749;51.962;8.560;2023-10-08T11:52:17;101135.69;;;14.78;100.00
31096;BME280;17749;51.962;8.560;2023-10-08T11:54:48;101133.63;;;14.84;100.00
31096;BME280;17749;51.962;8.560;2023-10-08T11:57:16;101125.38;;;14.89;100.00
31096;BME280;17749;51.962;8.560;2023-10-08T11:59:49;101117.25;;;14.90;100.00
31096;BME280;17749;51.962;8.560;2023-10-08T12:02:19;101124.88;;;15.01;100.00
31096;BME280;17749;51.962;8.560;2023-10-08T12:04:47;101124.66;;;15.06;100.00
31096;BME280;17749;51.962;8.560;2023-10-08T12:07:15;101121.31;;;15.01;100.00
31096;BME280;17749;51.962;8.560;2023-10-08T12:09:44;101118.09;;;15.13;100.00
31096;BME280;17749;51.962;8.560;2023-10-08T12:12:15;101109.00;;;15.17;100.00
31096;BME280;17749;51.962;8.560;2023-10-08T12:14:42;101100.66;;;15.23;100.00
31096;BME280;17749;51.962;8.560;2023-10-08T12:17:12;101091.91;;;15.20;100.00
31096;BME280;17749;51.962;8.560;2023-10-08T12:19:39;101102.00;;;15.13;100.00
31096;BME280;17749;51.962;8.560;2023-10-08T12:22:09;101090.13;;;15.19;100.00
31096;BME280;17749;51.962;8.560;2023-10-08T12:24:42;101077.81;;;15.15;100.00
31096;BME280;17749;51.962;8.560;2023-10-08T12:27:09;101074.66;;;15.25;100.00
31096;BME280;17749;51.962;8.560;2023-10-08T12:29:38;101072.88;;;15.24;100.00
31096;BME280;17749;51.962;8.560;2023-10-08T12:32:05;101079.69;;;15.33;100.00
31096;BME280;17749;51.962;8.560;2023-10-08T12:34:44;101071.28;;;15.20;100.00
31096;BME280;17749;51.962;8.560;2023-10-08T12:37:11;101055.06;;;15.03;100.00
31096;BME280;17749;51.962;8.560;2023-10-08T12:39:41;101051.03;;;14.93;100.00
31096;BME280;17749;51.962;8.560;2023-10-08T12:42:26;101040.56;;;14.86;100.00
31096;BME280;17749;51.962;8.560;2023-10-08T12:44:53;101047.41;;;14.94;100.00
31096;BME280;17749;51.962;8.560;2023-10-08T12:47:24;101044.50;;;14.98;100.00
31096;BME280;17749;51.962;8.560;2023-10-08T12:49:56;101045.28;;;15.02;100.00
31096;BME280;17749;51.962;8.560;2023-10-08T12:52:24;101051.56;;;15.01;100.00
31096;BME280;17749;51.962;8.560;2023-10-08T12:54:54;101040.06;;;14.99;100.00
31096;BME280;17749;51.962;8.560;2023-10-08T12:57:22;101035.41;;;15.02;100.00
31096;BME280;17749;51.962;8.560;2023-10-08T12:59:59;101045.00;;;15.08;100.00
31096;BME280;17749;51.962;8.560;2023-10-08T13:02:26;101044.00;;;15.10;100.00
31096;BME280;17749;51.962;8.560;2023-10-08T13:04:55;101043.38;;;15.24;100.00
31096;BME280;17749;51.962;8.560;2023-10-08T13:07:24;101033.59;;;15.23;100.00
31096;BME280;17749;51.962;8.560;2023-10-08T13:09:53;101030.56;;;15.31;100.00
31096;BME280;17749;51.962;8.560;2023-10-08T13:12:20;101034.88;;;15.54;100.00
31096;BME280;17749;51.962;8.560;2023-10-08T13:14:48;101044.81;;;15.52;100.00
31096;BME280;17749;51.962;8.560;2023-10-08T13:17:21;101042.00;;;15.55;100.00
31096;BME280;17749;51.962;8.560;2023-10-08T13:19:48;101041.03;;;15.56;100.00
31096;BME280;17749;51.962;8.560;2023-10-08T13:22:15;101027.09;;;15.48;100.00
31096;BME280;17749;51.962;8.560;2023-10-08T13:24:46;101034.91;;;15.33;100.00
31096;BME280;17749;51.962;8.560;2023-10-08T13:27:15;101033.44;;;15.26;100.00
31096;BME280;17749;51.962;8.560;2023-10-08T13:29:43;101036.00;;;15.29;100.00
31096;BME280;17749;51.962;8.560;2023-10-08T13:32:10;101033.59;;;15.23;100.00
31096;BME280;17749;51.962;8.560;2023-10-08T13:34:44;101041.91;;;15.17;100.00
31096;BME280;17749;51.962;8.560;2023-10-08T13:37:12;101042.59;;;15.22;100.00
31096;BME280;17749;51.962;8.560;2023-10-08T13:39:42;101047.47;;;15.33;100.00
31096;BME280;17749;51.962;8.560;2023-10-08T13:42:09;101049.00;;;15.39;100.00
31096;BME280;17749;51.962;8.560;2023-10-08T13:44:43;101056.44;;;15.52;100.00
31096;BME280;17749;51.962;8.560;2023-10-08T13:47:12;101051.91;;;15.53;100.00
31096;BME280;17749;51.962;8.560;2023-10-08T13:49:42;101049.63;;;15.64;100.00
31096;BME280;17749;51.962;8.560;2023-10-08T13:52:09;101050.34;;;15.68;100.00
31096;BME280;17749;51.962;8.560;2023-10-08T13:54:37;101042.50;;;15.63;100.00
31096;BME280;17749;51.962;8.560;2023-10-08T13:57:08;101041.03;;;15.56;100.00
31096;BME280;17749;51.962;8.560;2023-10-08T13:59:41;101019.56;;;15.56;100.00
31096;BME280;17749;51.962;8.560;2023-10-08T14:02:09;101036.06;;;15.67;100.00
31096;BME280;17749;51.962;8.560;2023-10-08T14:04:42;101031.19;;;15.56;100.00
31096;BME280;17749;51.962;8.560;2023-10-08T14:07:10;101031.75;;;15.63;100.00
31096;BME280;17749;51.962;8.560;2023-10-08T14:09:44;101038.00;;;15.64;100.00
31096;BME280;17749;51.962;8.560;2023-10-08T14:12:12;101043.38;;;15.64;100.00
31096;BME280;17749;51.962;8.560;2023-10-08T14:14:40;101034.59;;;15.60;100.00
31096;BME280;17749;51.962;8.560;2023-10-08T14:17:10;101033.28;;;15.50;100.00
31096;BME280;17749;51.962;8.560;2023-10-08T14:19:42;101028.63;;;15.53;100.00
31096;BME280;17749;51.962;8.560;2023-10-08T14:22:19;101024.66;;;15.43;100.00
31096;BME280;17749;51.962;8.560;2023-10-08T14:24:49;101027.69;;;15.36;100.00
31096;BME280;17749;51.962;8.560;2023-10-08T14:27:26;101016.34;;;15.29;100.00
31096;BME280;17749;51.962;8.560;2023-10-08T14:29:59;101011.63;;;15.34;100.00
31096;BME280;17749;51.962;8.560;2023-10-08T14:32:32;101008.13;;;15.32;100.00
31096;BME280;17749;51.962;8.560;2023-10-08T14:34:59;101003.00;;;15.27;100.00
31096;BME280;17749;51.962;8.560;2023-10-08T14:37:45;101004.69;;;15.09;100.00
31096;BME280;17749;51.962;8.560;2023-10-08T14:40:30;101006.25;;;14.95;100.00
31096;BME280;17749;51.962;8.560;2023-10-08T14:43:15;101003.31;;;14.80;100.00
31096;BME280;17749;51.962;8.560;2023-10-08T14:45:46;101005.41;;;14.72;100.00
31096;BME280;17749;51.962;8.560;2023-10-08T14:48:14;100999.13;;;14.73;100.00
31096;BME280;17749;51.962;8.560;2023-10-08T14:50:41;101008.91;;;14.74;100.00
31096;BME280;17749;51.962;8.560;2023-10-08T14:53:09;101006.22;;;14.74;100.00
31096;BME280;17749;51.962;8.560;2023-10-08T14:55:36;101013.72;;;14.66;100.00
31096;BME280;17749;51.962;8.560;2023-10-08T14:58:04;101013.31;;;14.55;100.00
31096;BME280;17749;51.962;8.560;2023-10-08T15:00:36;101020.28;;;14.59;100.00
31096;BME280;17749;51.962;8.560;2023-10-08T15:03:04;101022.19;;;14.57;100.00
31096;BME280;17749;51.962;8.560;2023-10-08T15:05:31;101025.41;;;14.65;100.00
31096;BME280;17749;51.962;8.560;2023-10-08T15:07:58;101018.41;;;14.61;100.00
31096;BME280;17749;51.962;8.560;2023-10-08T15:10:25;101007.97;;;14.55;100.00
31096;BME280;17749;51.962;8.560;2023-10-08T15:12:52;101013.31;;;14.55;100.00
31096;BME280;17749;51.962;8.560;2023-10-08T15:15:20;101024.03;;;14.55;100.00
31096;BME280;17749;51.962;8.560;2023-10-08T15:17:51;101016.06;;;14.53;100.00
31096;BME280;17749;51.962;8.560;2023-10-08T15:20:19;101030.38;;;14.52;100.00
31096;BME280;17749;51.962;8.560;2023-10-08T15:22:47;101038.47;;;14.51;100.00
31096;BME280;17749;51.962;8.560;2023-10-08T15:25:16;101027.28;;;14.63;100.00
31096;BME280;17749;51.962;8.560;2023-10-08T15:27:46;101013.06;;;14.61;100.00
31096;BME280;17749;51.962;8.560;2023-10-08T15:30:16;101021.97;;;14.61;100.00
31096;BME280;17749;51.962;8.560;2023-10-08T15:32:46;101007.81;;;14.58;100.00
31096;BME280;17749;51.962;8.560;2023-10-08T15:35:15;101012.53;;;14.51;100.00
31096;BME280;17749;51.962;8.560;2023-10-08T15:37:46;101011.66;;;14.51;100.00
31096;BME280;17749;51.962;8.560;2023-10-08T15:40:14;100996.38;;;14.54;100.00
31096;BME280;17749;51.962;8.560;2023-10-08T15:42:48;100994.66;;;14.52;100.00
31096;BME280;17749;51.962;8.560;2023-10-08T15:45:21;101000.47;;;14.41;100.00
31096;BME280;17749;51.962;8.560;2023-10-08T15:47:48;100999.84;;;14.34;100.00
31096;BME280;17749;51.962;8.560;2023-10-08T15:50:17;101003.47;;;14.33;100.00
31096;BME280;17749;51.962;8.560;2023-10-08T15:52:48;100994.53;;;14.33;100.00
31096;BME280;17749;51.962;8.560;2023-10-08T15:55:15;100983.91;;;14.31;100.00
31096;BME280;17749;51.962;8.560;2023-10-08T15:57:42;100959.25;;;14.23;100.00
31096;BME280;17749;51.962;8.560;2023-10-08T16:00:09;100981.59;;;14.22;100.00
31096;BME280;17749;51.962;8.560;2023-10-08T16:02:36;100977.44;;;14.15;100.00
31096;BME280;17749;51.962;8.560;2023-10-08T16:05:03;100964.97;;;14.14;100.00
31096;BME280;17749;51.962;8.560;2023-10-08T16:07:30;100973.13;;;14.11;100.00
31096;BME280;17749;51.962;8.560;2023-10-08T16:09:57;100968.81;;;14.07;100.00
31096;BME280;17749;51.962;8.560;2023-10-08T16:12:24;100952.88;;;14.03;100.00
31096;BME280;17749;51.962;8.560;2023-10-08T16:14:51;100951.28;;;13.99;100.00
31096;BME280;17749;51.962;8.560;2023-10-08T16:17:17;100945.28;;;13.93;100.00
31096;BME280;17749;51.962;8.560;2023-10-08T16:19:46;100941.75;;;13.92;100.00
31096;BME280;17749;51.962;8.560;2023-10-08T16:22:14;100958.75;;;13.91;100.00
31096;BME280;17749;51.962;8.560;2023-10-08T16:24:40;100962.22;;;13.93;100.00
31096;BME280;17749;51.962;8.560;2023-10-08T16:27:07;100949.78;;;13.92;100.00
31096;BME280;17749;51.962;8.560;2023-10-08T16:29:34;100955.25;;;13.89;100.00
31096;BME280;17749;51.962;8.560;2023-10-08T16:32:03;100944.56;;;13.89;100.00
31096;BME280;17749;51.962;8.560;2023-10-08T16:34:32;100942.78;;;13.88;100.00
31096;BME280;17749;51.962;8.560;2023-10-08T16:37:01;100941.19;;;13.84;100.00
31096;BME280;17749;51.962;8.560;2023-10-08T16:39:28;100939.56;;;13.80;100.00
31096;BME280;17749;51.962;8.560;2023-10-08T16:41:57;100943.19;;;13.79;100.00
31096;BME280;17749;51.962;8.560;2023-10-08T16:44:24;100950.53;;;13.74;100.00
31096;BME280;17749;51.962;8.560;2023-10-08T16:46:53;100949.13;;;13.64;100.00
31096;BME280;17749;51.962;8.560;2023-10-08T16:49:20;100945.41;;;13.68;100.00
31096;BME280;17749;51.962;8.560;2023-10-08T16:51:47;100943.44;;;13.73;100.00
31096;BME280;17749;51.962;8.560;2023-10-08T16:54:14;100939.94;;;13.71;100.00
31096;BME280;17749;51.962;8.560;2023-10-08T16:56:42;100935.75;;;13.64;100.00
31096;BME280;17749;51.962;8.560;2023-10-08T16:59:11;100933.34;;;13.57;100.00
31096;BME280;17749;51.962;8.560;2023-10-08T17:01:42;100928.75;;;13.59;100.00
31096;BME280;17749;51.962;8.560;2023-10-08T17:04:09;100921.72;;;13.57;100.00
31096;BME280;17749;51.962;8.560;2023-10-08T17:06:36;100922.72;;;13.54;100.00
31096;BME280;17749;51.962;8.560;2023-10-08T17:09:03;100930.19;;;13.46;100.00
31096;BME280;17749;51.962;8.560;2023-10-08T17:11:41;100925.81;;;13.44;100.00
31096;BME280;17749;51.962;8.560;2023-10-08T17:14:12;100924.94;;;13.43;100.00
31096;BME280;17749;51.962;8.560;2023-10-08T17:19:39;100919.03;;;13.35;100.00
31096;BME280;17749;51.962;8.560;2023-10-08T17:22:06;100919.97;;;13.34;100.00
31096;BME280;17749;51.962;8.560;2023-10-08T17:24:32;100909.50;;;13.28;100.00
31096;BME280;17749;51.962;8.560;2023-10-08T17:26:59;100914.03;;;13.26;100.00
31096;BME280;17749;51.962;8.560;2023-10-08T17:29:40;100906.09;;;13.23;100.00
31096;BME280;17749;51.962;8.560;2023-10-08T17:32:08;100908.97;;;13.18;100.00
31096;BME280;17749;51.962;8.560;2023-10-08T17:34:35;100899.34;;;13.12;100.00
31096;BME280;17749;51.962;8.560;2023-10-08T17:37:02;100897.50;;;13.14;100.00
31096;BME280;17749;51.962;8.560;2023-10-08T17:39:29;100883.50;;;13.08;100.00
31096;BME280;17749;51.962;8.560;2023-10-08T17:41:55;100885.41;;;13.04;100.00
31096;BME280;17749;51.962;8.560;2023-10-08T17:44:23;100885.97;;;12.89;100.00
31096;BME280;17749;51.962;8.560;2023-10-08T17:46:51;100896.66;;;12.89;100.00
31096;BME280;17749;51.962;8.560;2023-10-08T17:49:18;100891.31;;;12.89;100.00
31096;BME280;17749;51.962;8.560;2023-10-08T17:51:46;100869.94;;;12.89;100.00
31096;BME280;17749;51.962;8.560;2023-10-08T17:54:13;100864.81;;;12.83;100.00
31096;BME280;17749;51.962;8.560;2023-10-08T17:56:40;100877.47;;;12.78;100.00
31096;BME280;17749;51.962;8.560;2023-10-08T17:59:08;100880.16;;;12.78;100.00
31096;BME280;17749;51.962;8.560;2023-10-08T18:01:38;100878.59;;;12.72;100.00
31096;BME280;17749;51.962;8.560;2023-10-08T18:04:06;100870.81;;;12.66;100.00
31096;BME280;17749;51.962;8.560;2023-10-08T18:06:36;100868.41;;;12.58;100.00
31096;BME280;17749;51.962;8.560;2023-10-08T18:09:03;100862.34;;;12.53;100.00
31096;BME280;17749;51.962;8.560;2023-10-08T18:11:37;100858.88;;;12.51;100.00
31096;BME280;17749;51.962;8.560;2023-10-08T18:14:09;100865.22;;;12.47;100.00
31096;BME280;17749;51.962;8.560;2023-10-08T18:16:38;100868.81;;;12.47;100.00